Terminal Aerodrome Forecast
Issued by NWS Salt Lake City, UT

Home | Current Version | Previous Version | Text Only | Print | Product List | Glossary On
Versions: 1 2 3 4 5 6 7 8 9 10 11 12 13 14 15 16 17 18 19 20 21 22 23 24 25 26 27
000
FTUS45 KSLC 211408 AAA
TAFCDC
TAF AMD
KCDC 211408Z 2114/2212 VRB03KT P6SM -SHRA OVC080
      TEMPO 2114/2115 3SM RA BR SCT020 OVC050
     FM211500 VRB03KT P6SM BKN080
     FM211900 18006KT P6SM VCTS SCT050CB BKN080
     FM220100 16005KT P6SM SCT080=

USA.gov is the U.S. government's official web portal to all federal, state and local government web resources and services.